createdAt,value
2023-03-27T00:01:31.832Z,2.59
2023-03-27T00:06:00.666Z,2.58
2023-03-27T00:10:31.281Z,2.59
2023-03-27T00:15:01.610Z,2.61
2023-03-27T00:36:27.705Z,2.87
2023-03-27T00:40:45.994Z,2.88
2023-03-27T00:45:23.190Z,2.88
2023-03-27T00:49:45.224Z,2.83
2023-03-27T00:54:15.244Z,2.81
2023-03-27T01:11:42.486Z,2.57
2023-03-27T01:16:14.932Z,2.50
2023-03-27T01:35:03.656Z,2.60
2023-03-27T01:39:36.987Z,2.62
2023-03-27T01:43:49.253Z,2.58
2023-03-27T02:05:50.635Z,2.71
2023-03-27T02:10:11.304Z,2.70
2023-03-27T02:14:45.429Z,2.69
2023-03-27T02:19:03.649Z,2.69
2023-03-27T02:41:17.988Z,2.76
2023-03-27T02:46:02.883Z,2.75
2023-03-27T02:50:39.338Z,2.70
2023-03-27T02:55:05.559Z,2.71
2023-03-27T02:59:29.649Z,2.71
2023-03-27T03:04:08.974Z,2.70
2023-03-27T03:26:22.206Z,2.26
2023-03-27T03:30:51.929Z,2.03
2023-03-27T03:52:42.834Z,1.93
2023-03-27T03:57:11.938Z,1.96
2023-03-27T04:01:43.057Z,1.99
2023-03-27T04:23:35.096Z,2.13
2023-03-27T04:28:06.434Z,2.16
2023-03-27T04:32:36.371Z,2.16
2023-03-27T04:36:48.874Z,2.17
2023-03-27T04:41:17.884Z,2.14
2023-03-27T05:06:08.597Z,2.13
2023-03-27T05:10:11.314Z,2.11
2023-03-27T05:14:38.786Z,2.09
2023-03-27T05:18:35.670Z,2.06
2023-03-27T05:23:05.638Z,2.07
2023-03-27T05:27:35.204Z,2.09
2023-03-27T05:44:43.288Z,2.24
2023-03-27T05:49:13.422Z,2.38
2023-03-27T05:53:45.489Z,2.52
2023-03-27T05:57:56.661Z,2.59
2023-03-27T06:14:39.330Z,2.88
2023-03-27T06:18:55.846Z,2.86
2023-03-27T06:23:25.247Z,2.89
2023-03-27T06:27:42.267Z,2.75
2023-03-27T06:31:31.171Z,2.68
2023-03-27T06:38:51.160Z,2.71
2023-03-27T06:42:38.465Z,2.66
2023-03-27T06:46:16.513Z,2.51
2023-03-27T06:50:37.998Z,2.28
2023-03-27T06:53:43.795Z,2.06
2023-03-27T06:57:01.168Z,1.86
2023-03-27T06:59:54.815Z,1.78
2023-03-27T07:03:48.339Z,1.75
2023-03-27T07:11:39.899Z,1.62
2023-03-27T07:14:32.436Z,1.61
2023-03-27T07:17:48.709Z,1.59
2023-03-27T07:20:58.700Z,1.59
2023-03-27T07:23:51.575Z,1.54
2023-03-27T07:27:00.421Z,1.53
2023-03-27T07:30:49.424Z,1.61
2023-03-27T07:35:00.864Z,1.71
2023-03-27T08:17:15.578Z,4.04
2023-03-27T08:21:45.649Z,4.41
2023-03-27T08:43:08.500Z,3.74
2023-03-27T08:47:58.929Z,3.35
2023-03-27T08:52:37.228Z,3.17
2023-03-27T09:14:51.195Z,4.29
2023-03-27T09:19:27.330Z,4.04
2023-03-27T09:50:18.328Z,5.11
2023-03-27T10:08:08.740Z,5.50
2023-03-27T10:12:50.967Z,5.22
2023-03-27T10:17:00.833Z,5.44
2023-03-27T10:21:35.747Z,5.37
2023-03-27T10:26:08.062Z,5.58
2023-03-27T11:23:08.997Z,5.98
2023-03-27T11:27:29.105Z,5.90
2023-03-27T11:32:14.748Z,5.92
2023-03-27T11:45:07.204Z,6.21
2023-03-27T12:34:40.238Z,6.67
2023-03-27T13:04:04.311Z,7.51
2023-03-27T13:08:30.903Z,7.64
2023-03-27T13:13:11.485Z,7.76
2023-03-27T13:17:46.572Z,7.80
2023-03-27T13:22:26.238Z,7.99
2023-03-27T13:26:56.416Z,8.12
2023-03-27T13:48:52.373Z,7.74
2023-03-27T13:53:08.016Z,7.60
2023-03-27T14:01:59.679Z,8.18
2023-03-27T14:06:26.334Z,8.40
2023-03-27T14:15:17.387Z,8.75
2023-03-27T14:54:26.422Z,8.65
2023-03-27T14:58:55.761Z,8.47
2023-03-27T15:03:14.055Z,8.28
2023-03-27T15:37:57.164Z,8.25
2023-03-27T15:42:32.265Z,7.88
2023-03-27T15:47:01.150Z,7.53
2023-03-27T15:51:38.632Z,7.28
2023-03-27T16:13:28.588Z,6.28
2023-03-27T16:17:55.615Z,6.05
2023-03-27T16:21:48.230Z,5.80
2023-03-27T16:51:28.293Z,5.52
2023-03-27T16:55:47.200Z,5.35
2023-03-27T17:00:17.193Z,5.16
2023-03-27T17:21:50.065Z,4.27
2023-03-27T17:26:18.878Z,4.08
2023-03-27T17:31:01.134Z,3.91
2023-03-27T17:35:07.595Z,3.79
2023-03-27T17:56:06.991Z,3.54
2023-03-27T18:00:40.843Z,3.50
2023-03-27T18:05:02.996Z,3.45
2023-03-27T18:09:32.874Z,3.43
2023-03-27T18:13:58.524Z,3.45
2023-03-27T18:31:13.754Z,3.77
2023-03-27T18:35:43.278Z,3.69
2023-03-27T18:40:12.019Z,3.58
2023-03-27T19:01:44.503Z,3.30
2023-03-27T19:06:14.404Z,3.23
2023-03-27T19:37:09.310Z,2.84
2023-03-27T20:00:00.256Z,2.88
2023-03-27T20:04:29.516Z,2.90
2023-03-27T20:08:58.917Z,2.92
2023-03-27T20:13:28.790Z,2.89
2023-03-27T20:22:24.900Z,2.75
2023-03-27T20:26:36.134Z,2.68
2023-03-27T20:30:35.529Z,2.64
2023-03-27T20:57:50.714Z,2.39
2023-03-27T21:02:19.650Z,2.28
2023-03-27T21:06:51.817Z,2.25
2023-03-27T21:28:33.954Z,2.06
2023-03-27T21:33:03.779Z,1.97
2023-03-27T21:37:34.005Z,1.88
2023-03-27T22:03:29.285Z,1.65
2023-03-27T22:20:19.894Z,1.64
2023-03-27T22:24:48.677Z,1.65
2023-03-27T22:44:10.667Z,1.80
2023-03-27T22:48:19.290Z,1.78
2023-03-27T22:52:48.835Z,1.76
2023-03-27T22:57:18.787Z,1.76
2023-03-27T23:14:44.267Z,1.73
2023-03-27T23:19:13.011Z,1.71
2023-03-27T23:23:42.266Z,1.67
2023-03-27T23:28:11.201Z,1.59
2023-03-27T23:32:40.096Z,1.56
2023-03-27T23:54:28.084Z,1.56
2023-03-27T23:58:56.871Z,1.52
